^^
Station Historical Data
Daily Summary for January 2, 2018 Units:  Both    English   Metric
« Previous Day
Next Day »
Daily Weekly Monthly Yearly Custom
  High: Low: Average:
Temperature: TemperatureF °F /  -17.8 °C 56.7 °F /  13.7 °C 71.3 °F /  21.8 °C
Dew Point: DewpointF °F /  -17.8 °C 10.9 °F /  -11.7 °C 34.5 °F /  1.4 °C
Humidity: Humidity% 5% 37%
Wind Speed: WindSpeedMPHmph /  0km/h - 4.6mph /  7.4km/h
Wind Gust: WindSpeedGustMPHmph /  0km/h - -
Wind- - SSW
Pressure: PressureIn in /  0 hPa 29.76 in /  1007.7 hPa -
Precipitation: 0.00 in /  0 mm    
Historical Graphs
 
 
Tabular Data for January 2, 2018
Time Temperature Dew Point Pressure Wind Wind Speed Wind Gust Humidity Rainfall Rate (Hourly) solar Conditions
TemperatureF °F /  -17.8 °C DewpointF °F /  -17.8 °C PressureInin /  0hPa Calm     Humidity% HourlyPrecipInin /  0mm SolarRadiationWatts/m^2 W/m2 Conditions
00:09 66.2 °F /  19 °C 45.9 °F /  7.7 °C 29.90in /  1012.4hPa SSW 8.9mph /  14.3km/h 14.0mph /  22.5km/h 48% 0.00in /  0mm 0.0 W/m2
00:14 66.0 °F /  18.9 °C 45.7 °F /  7.6 °C 29.89in /  1012.1hPa SSW 8.9mph /  14.3km/h 13.0mph /  20.9km/h 48% 0.00in /  0mm 0.0 W/m2
00:20 65.8 °F /  18.8 °C 46.2 °F /  7.9 °C 29.89in /  1012.1hPa SSW 11.0mph /  17.7km/h 13.0mph /  20.9km/h 49% 0.00in /  0mm 0.0 W/m2
00:29 65.7 °F /  18.7 °C 46.0 °F /  7.8 °C 29.89in /  1012.1hPa SSW 13.0mph /  20.9km/h 13.0mph /  20.9km/h 49% 0.00in /  0mm 0.0 W/m2
00:34 65.3 °F /  18.5 °C 46.2 °F /  7.9 °C 29.89in /  1012.1hPa SSW 8.9mph /  14.3km/h 12.0mph /  19.3km/h 50% 0.00in /  0mm 0.0 W/m2
00:39 65.1 °F /  18.4 °C 46.0 °F /  7.8 °C 29.89in /  1012.1hPa SW 8.9mph /  14.3km/h 10.0mph /  16.1km/h 50% 0.00in /  0mm 0.0 W/m2
00:44 64.9 °F /  18.3 °C 45.9 °F /  7.7 °C 29.89in /  1012.1hPa SW 8.1mph /  13km/h 11.0mph /  17.7km/h 50% 0.00in /  0mm 0.0 W/m2
00:49 64.9 °F /  18.3 °C 46.4 °F /  8 °C 29.89in /  1012.1hPa SW 6.9mph /  11.1km/h 11.0mph /  17.7km/h 51% 0.00in /  0mm 0.0 W/m2
00:54 64.8 °F /  18.2 °C 46.2 °F /  7.9 °C 29.89in /  1012.1hPa SW 10.1mph /  16.3km/h 10.1mph /  16.3km/h 51% 0.00in /  0mm 0.0 W/m2
01:00 64.8 °F /  18.2 °C 46.2 °F /  7.9 °C 29.89in /  1012.1hPa SW 8.9mph /  14.3km/h 11.0mph /  17.7km/h 51% 0.00in /  0mm 0.0 W/m2
01:10 64.6 °F /  18.1 °C 46.6 °F /  8.1 °C 29.88in /  1011.7hPa SW 13.0mph /  20.9km/h 13.0mph /  20.9km/h 52% 0.00in /  0mm 0.0 W/m2
01:20 64.2 °F /  17.9 °C 46.8 °F /  8.2 °C 29.88in /  1011.7hPa SW 11.0mph /  17.7km/h 13.0mph /  20.9km/h 53% 0.00in /  0mm 0.0 W/m2
01:25 64.2 °F /  17.9 °C 46.8 °F /  8.2 °C 29.87in /  1011.4hPa SW 11.0mph /  17.7km/h 11.0mph /  17.7km/h 53% 0.00in /  0mm 0.0 W/m2
01:30 64.0 °F /  17.8 °C 46.6 °F /  8.1 °C 29.87in /  1011.4hPa SW 12.1mph /  19.5km/h 13.0mph /  20.9km/h 53% 0.00in /  0mm 0.0 W/m2
01:35 63.9 °F /  17.7 °C 46.4 °F /  8 °C 29.87in /  1011.4hPa SW 8.1mph /  13km/h 15.0mph /  24.1km/h 53% 0.00in /  0mm 0.0 W/m2
01:40 63.9 °F /  17.7 °C 46.4 °F /  8 °C 29.87in /  1011.4hPa SW 8.9mph /  14.3km/h 11.0mph /  17.7km/h 53% 0.00in /  0mm 0.0 W/m2
01:45 63.7 °F /  17.6 °C 46.8 °F /  8.2 °C 29.87in /  1011.4hPa SSW 8.9mph /  14.3km/h 11.0mph /  17.7km/h 54% 0.00in /  0mm 0.0 W/m2
01:55 63.3 °F /  17.4 °C 46.4 °F /  8 °C 29.87in /  1011.4hPa SSW 10.1mph /  16.3km/h 14.0mph /  22.5km/h 54% 0.00in /  0mm 0.0 W/m2
02:00 63.3 °F /  17.4 °C 46.4 °F /  8 °C 29.86in /  1011.1hPa SSW 8.9mph /  14.3km/h 11.0mph /  17.7km/h 54% 0.00in /  0mm 0.0 W/m2
02:05 63.1 °F /  17.3 °C 46.2 °F /  7.9 °C 29.86in /  1011.1hPa SSW 8.1mph /  13km/h 11.0mph /  17.7km/h 54% 0.00in /  0mm 0.0 W/m2
02:15 63.0 °F /  17.2 °C 46.6 °F /  8.1 °C 29.87in /  1011.4hPa SSW 8.9mph /  14.3km/h 10.0mph /  16.1km/h 55% 0.00in /  0mm 0.0 W/m2
02:20 62.8 °F /  17.1 °C 46.4 °F /  8 °C 29.87in /  1011.4hPa SW 8.1mph /  13km/h 9.0mph /  14.5km/h 55% 0.00in /  0mm 0.0 W/m2
02:25 62.4 °F /  16.9 °C 46.0 °F /  7.8 °C 29.87in /  1011.4hPa SW 4.0mph /  6.4km/h 6.0mph /  9.7km/h 55% 0.00in /  0mm 0.0 W/m2
02:30 62.2 °F /  16.8 °C 46.4 °F /  8 °C 29.87in /  1011.4hPa SW 6.9mph /  11.1km/h 10.0mph /  16.1km/h 56% 0.00in /  0mm 0.0 W/m2
02:35 62.2 °F /  16.8 °C 46.4 °F /  8 °C 29.87in /  1011.4hPa SW 6.9mph /  11.1km/h 7.0mph /  11.3km/h 56% 0.00in /  0mm 0.0 W/m2
02:45 62.1 °F /  16.7 °C 46.2 °F /  7.9 °C 29.86in /  1011.1hPa SW 4.0mph /  6.4km/h 7.0mph /  11.3km/h 56% 0.00in /  0mm 0.0 W/m2
02:50 61.9 °F /  16.6 °C 46.0 °F /  7.8 °C 29.86in /  1011.1hPa SW 2.9mph /  4.7km/h 5.0mph /  8km/h 56% 0.00in /  0mm 0.0 W/m2
02:55 61.5 °F /  16.4 °C 45.7 °F /  7.6 °C 29.87in /  1011.4hPa SW 2.0mph /  3.2km/h 3.0mph /  4.8km/h 56% 0.00in /  0mm 0.0 W/m2
03:00 61.3 °F /  16.3 °C 45.5 °F /  7.5 °C 29.87in /  1011.4hPa Calm   2.0mph /  3.2km/h 56% 0.00in /  0mm 0.0 W/m2
03:06 61.2 °F /  16.2 °C 45.9 °F /  7.7 °C 29.87in /  1011.4hPa Calm     57% 0.00in /  0mm 0.0 W/m2
03:11 61.0 °F /  16.1 °C 45.7 °F /  7.6 °C 29.87in /  1011.4hPa Calm     57% 0.00in /  0mm 0.0 W/m2
03:16 61.2 °F /  16.2 °C 46.2 °F /  7.9 °C 29.87in /  1011.4hPa SSW 8.1mph /  13km/h 9.0mph /  14.5km/h 58% 0.00in /  0mm 0.0 W/m2
03:26 61.2 °F /  16.2 °C 45.9 °F /  7.7 °C 29.86in /  1011.1hPa SSW 6.0mph /  9.7km/h 7.0mph /  11.3km/h 57% 0.00in /  0mm 0.0 W/m2
03:31 61.0 °F /  16.1 °C 46.0 °F /  7.8 °C 29.86in /  1011.1hPa SSW 4.9mph /  7.9km/h 7.0mph /  11.3km/h 58% 0.00in /  0mm 0.0 W/m2
03:41 60.6 °F /  15.9 °C 45.7 °F /  7.6 °C 29.86in /  1011.1hPa SSW 4.0mph /  6.4km/h 7.0mph /  11.3km/h 58% 0.00in /  0mm 0.0 W/m2
03:47 60.4 °F /  15.8 °C 45.7 °F /  7.6 °C 29.86in /  1011.1hPa SSW 6.9mph /  11.1km/h 7.0mph /  11.3km/h 58% 0.00in /  0mm 0.0 W/m2
03:52 60.3 °F /  15.7 °C 45.5 °F /  7.5 °C 29.86in /  1011.1hPa SSW 4.9mph /  7.9km/h 8.0mph /  12.9km/h 58% 0.00in /  0mm 0.0 W/m2
03:57 60.3 °F /  15.7 °C 45.5 °F /  7.5 °C 29.86in /  1011.1hPa SSW 4.9mph /  7.9km/h 6.0mph /  9.7km/h 58% 0.00in /  0mm 0.0 W/m2
04:02 60.3 °F /  15.7 °C 45.9 °F /  7.7 °C 29.86in /  1011.1hPa SSW 6.0mph /  9.7km/h 6.0mph /  9.7km/h 59% 0.00in /  0mm 0.0 W/m2
04:12 59.7 °F /  15.4 °C 45.3 °F /  7.4 °C 29.86in /  1011.1hPa SSW 4.0mph /  6.4km/h 5.0mph /  8km/h 59% 0.00in /  0mm 0.0 W/m2
04:23 59.0 °F /  15 °C 44.8 °F /  7.1 °C 29.86in /  1011.1hPa SSW 2.9mph /  4.7km/h 3.0mph /  4.8km/h 59% 0.00in /  0mm 0.0 W/m2
04:29 58.6 °F /  14.8 °C 45.3 °F /  7.4 °C 29.86in /  1011.1hPa SSW 4.0mph /  6.4km/h 6.0mph /  9.7km/h 61% 0.00in /  0mm 0.0 W/m2
04:34 58.6 °F /  14.8 °C 45.3 °F /  7.4 °C 29.86in /  1011.1hPa SSW 2.9mph /  4.7km/h 4.0mph /  6.4km/h 61% 0.00in /  0mm 0.0 W/m2
04:39 58.5 °F /  14.7 °C 45.1 °F /  7.3 °C 29.86in /  1011.1hPa SSW 2.9mph /  4.7km/h 5.0mph /  8km/h 61% 0.00in /  0mm 0.0 W/m2
04:44 58.5 °F /  14.7 °C 45.5 °F /  7.5 °C 29.86in /  1011.1hPa SSW 4.9mph /  7.9km/h 5.0mph /  8km/h 62% 0.00in /  0mm 0.0 W/m2
04:49 58.5 °F /  14.7 °C 45.5 °F /  7.5 °C 29.86in /  1011.1hPa SSW 4.0mph /  6.4km/h 5.0mph /  8km/h 62% 0.00in /  0mm 0.0 W/m2
04:54 58.5 °F /  14.7 °C 45.5 °F /  7.5 °C 29.86in /  1011.1hPa Calm     62% 0.00in /  0mm 0.0 W/m2
05:04 58.5 °F /  14.7 °C 45.5 °F /  7.5 °C 29.86in /  1011.1hPa SSW 2.0mph /  3.2km/h 4.0mph /  6.4km/h 62% 0.00in /  0mm 0.0 W/m2
05:09 58.3 °F /  14.6 °C 45.3 °F /  7.4 °C 29.87in /  1011.4hPa Calm     62% 0.00in /  0mm 0.0 W/m2
05:19 57.9 °F /  14.4 °C 45.3 °F /  7.4 °C 29.86in /  1011.1hPa Calm     63% 0.00in /  0mm 0.0 W/m2
05:35 57.6 °F /  14.2 °C 45.1 °F /  7.3 °C 29.87in /  1011.4hPa Calm     63% 0.00in /  0mm 0.0 W/m2
05:40 57.4 °F /  14.1 °C 45.0 °F /  7.2 °C 29.87in /  1011.4hPa Calm     63% 0.00in /  0mm 0.0 W/m2
05:45 57.2 °F /  14 °C 44.8 °F /  7.1 °C 29.87in /  1011.4hPa Calm     63% 0.00in /  0mm 0.0 W/m2
05:50 56.8 °F /  13.8 °C 43.9 °F /  6.6 °C 29.87in /  1011.4hPa Calm     62% 0.00in /  0mm 0.0 W/m2
05:55 56.7 °F /  13.7 °C 45.0 °F /  7.2 °C 29.88in /  1011.7hPa Calm     65% 0.00in /  0mm 0.0 W/m2
06:05 56.7 °F /  13.7 °C 44.6 °F /  7 °C 29.88in /  1011.7hPa SSW 4.0mph /  6.4km/h 5.0mph /  8km/h 64% 0.00in /  0mm 7.0 W/m2
06:10 56.8 °F /  13.8 °C 44.8 °F /  7.1 °C 29.88in /  1011.7hPa SSW 2.0mph /  3.2km/h 4.0mph /  6.4km/h 64% 0.00in /  0mm 11.0 W/m2
06:15 57.0 °F /  13.9 °C 44.6 °F /  7 °C 29.88in /  1011.7hPa Calm   3.0mph /  4.8km/h 63% 0.00in /  0mm 14.0 W/m2
06:23 57.0 °F /  13.9 °C 45.0 °F /  7.2 °C 29.88in /  1011.7hPa SSW 4.0mph /  6.4km/h 5.0mph /  8km/h 64% 0.00in /  0mm 18.0 W/m2
06:31 58.3 °F /  14.6 °C 45.7 °F /  7.6 °C 29.89in /  1012.1hPa Calm     63% 0.00in /  0mm 42.0 W/m2
06:52 60.1 °F /  15.6 °C 45.7 °F /  7.6 °C 29.89in /  1012.1hPa Calm     59% 0.00in /  0mm 90.0 W/m2
07:07 61.3 °F /  16.3 °C 46.0 °F /  7.8 °C 29.90in /  1012.4hPa Calm     57% 0.00in /  0mm 151.0 W/m2
07:41 64.6 °F /  18.1 °C 45.5 °F /  7.5 °C 29.90in /  1012.4hPa SSW 4.9mph /  7.9km/h 6.0mph /  9.7km/h 50% 0.00in /  0mm 294.0 W/m2
07:51 65.7 °F /  18.7 °C 45.0 °F /  7.2 °C 29.90in /  1012.4hPa SSW 4.0mph /  6.4km/h 5.0mph /  8km/h 47% 0.00in /  0mm 330.0 W/m2
07:58 66.9 °F /  19.4 °C 44.2 °F /  6.8 °C 29.91in /  1012.8hPa SSW 0.9mph /  1.4km/h 5.0mph /  8km/h 44% 0.00in /  0mm 367.0 W/m2
12:19 84.9 °F /  29.4 °C 26.6 °F /  -3 °C 29.88in /  1011.7hPa Calm     12% 0.00in /  0mm 1005.0 W/m2
12:25 84.7 °F /  29.3 °C 24.4 °F /  -4.2 °C 29.88in /  1011.7hPa Calm     11% 0.00in /  0mm 1009.0 W/m2
12:30 84.9 °F /  29.4 °C 22.3 °F /  -5.4 °C 29.88in /  1011.7hPa Calm   2.0mph /  3.2km/h 10% 0.00in /  0mm 1011.0 W/m2
12:36 84.9 °F /  29.4 °C 22.3 °F /  -5.4 °C 29.88in /  1011.7hPa ESE 4.0mph /  6.4km/h 4.0mph /  6.4km/h 10% 0.00in /  0mm 1013.0 W/m2
12:49 85.5 °F /  29.7 °C 22.6 °F /  -5.2 °C 29.87in /  1011.4hPa Calm     10% 0.00in /  0mm 1013.0 W/m2
12:54 86.2 °F /  30.1 °C 25.5 °F /  -3.6 °C 29.87in /  1011.4hPa Calm     11% 0.00in /  0mm 1014.0 W/m2
13:04 86.5 °F /  30.3 °C 18.3 °F /  -7.6 °C 29.86in /  1011.1hPa Calm     8% 0.00in /  0mm 1013.0 W/m2
13:35 88.5 °F /  31.4 °C 25.0 °F /  -3.9 °C 29.85in /  1010.7hPa Calm     10% 0.00in /  0mm 995.0 W/m2
13:41 88.5 °F /  31.4 °C 25.0 °F /  -3.9 °C 29.85in /  1010.7hPa Calm     10% 0.00in /  0mm 995.0 W/m2
14:06 89.2 °F /  31.8 °C 13.6 °F /  -10.2 °C 29.84in /  1010.4hPa Calm   1.0mph /  1.6km/h 6% 0.00in /  0mm 974.0 W/m2
14:12 89.2 °F /  31.8 °C 13.6 °F /  -10.2 °C 29.84in /  1010.4hPa Calm   1.0mph /  1.6km/h 6% 0.00in /  0mm 974.0 W/m2
14:37 89.1 °F /  31.7 °C 17.1 °F /  -8.3 °C 29.83in /  1010hPa Calm   2.0mph /  3.2km/h 7% 0.00in /  0mm 932.0 W/m2
14:53 90.0 °F /  32.2 °C 14.2 °F /  -9.9 °C 29.83in /  1010hPa ESE 0.9mph /  1.4km/h 1.0mph /  1.6km/h 6% 0.00in /  0mm 905.0 W/m2
15:02 90.1 °F /  32.3 °C 14.2 °F /  -9.9 °C 29.82in /  1009.7hPa Calm     6% 0.00in /  0mm 874.0 W/m2
15:25 91.2 °F /  32.9 °C 10.9 °F /  -11.7 °C 29.82in /  1009.7hPa ESE 8.9mph /  14.3km/h 10.0mph /  16.1km/h 5% 0.00in /  0mm 838.0 W/m2
15:46 90.3 °F /  32.4 °C 14.4 °F /  -9.8 °C 29.81in /  1009.4hPa Calm     6% 0.00in /  0mm 786.0 W/m2
15:57 91.0 °F /  32.8 °C 18.5 °F /  -7.5 °C 29.80in /  1009hPa SE 2.0mph /  3.2km/h 2.0mph /  3.2km/h 7% 0.00in /  0mm 729.0 W/m2
16:06 91.0 °F /  32.8 °C 18.5 °F /  -7.5 °C 29.80in /  1009hPa SE 2.0mph /  3.2km/h 2.0mph /  3.2km/h 7% 0.00in /  0mm 729.0 W/m2
16:18 92.5 °F /  33.6 °C 19.6 °F /  -6.9 °C 29.80in /  1009hPa Calm   2.0mph /  3.2km/h 7% 0.00in /  0mm 666.0 W/m2
16:46 91.6 °F /  33.1 °C 18.9 °F /  -7.3 °C 29.79in /  1008.7hPa Calm     7% 0.00in /  0mm 598.0 W/m2
16:53 91.4 °F /  33 °C 21.9 °F /  -5.6 °C 29.79in /  1008.7hPa Calm   2.0mph /  3.2km/h 8% 0.00in /  0mm 550.0 W/m2
17:27 91.9 °F /  33.3 °C 22.3 °F /  -5.4 °C 29.77in /  1008hPa SSE 4.0mph /  6.4km/h 10.0mph /  16.1km/h 8% 0.00in /  0mm 450.0 W/m2
17:54 91.6 °F /  33.1 °C 18.9 °F /  -7.3 °C 29.76in /  1007.7hPa SSE 2.9mph /  4.7km/h 9.0mph /  14.5km/h 7% 0.00in /  0mm 364.0 W/m2
18:04 91.8 °F /  33.2 °C 19.0 °F /  -7.2 °C 29.77in /  1008hPa South 10.1mph /  16.3km/h 11.0mph /  17.7km/h 7% 0.00in /  0mm 309.0 W/m2
18:19 91.8 °F /  33.2 °C 15.4 °F /  -9.2 °C 29.77in /  1008hPa SSW 10.1mph /  16.3km/h 12.0mph /  19.3km/h 6% 0.00in /  0mm 255.0 W/m2
18:49 90.7 °F /  32.6 °C 14.7 °F /  -9.6 °C 29.77in /  1008hPa South 2.0mph /  3.2km/h 11.0mph /  17.7km/h 6% 0.00in /  0mm 128.0 W/m2
19:10 90.3 °F /  32.4 °C 14.4 °F /  -9.8 °C 29.77in /  1008hPa South 6.0mph /  9.7km/h 8.0mph /  12.9km/h 6% 0.00in /  0mm 76.0 W/m2
19:20 90.0 °F /  32.2 °C 14.2 °F /  -9.9 °C 29.78in /  1008.4hPa South 6.0mph /  9.7km/h 11.0mph /  17.7km/h 6% 0.00in /  0mm 16.0 W/m2
19:48 88.5 °F /  31.4 °C 13.1 °F /  -10.5 °C 29.78in /  1008.4hPa South 6.9mph /  11.1km/h 10.0mph /  16.1km/h 6% 0.00in /  0mm 5.0 W/m2
20:00 88.0 °F /  31.1 °C 12.7 °F /  -10.7 °C 29.78in /  1008.4hPa South 6.0mph /  9.7km/h 7.0mph /  11.3km/h 6% 0.00in /  0mm 0.0 W/m2
20:11 87.3 °F /  30.7 °C 12.2 °F /  -11 °C 29.78in /  1008.4hPa South 4.9mph /  7.9km/h 7.0mph /  11.3km/h 6% 0.00in /  0mm 0.0 W/m2
20:25 86.5 °F /  30.3 °C 11.7 °F /  -11.3 °C 29.79in /  1008.7hPa South 4.9mph /  7.9km/h 5.0mph /  8km/h 6% 0.00in /  0mm 0.0 W/m2
20:30 86.4 °F /  30.2 °C 23.4 °F /  -4.8 °C 29.80in /  1009hPa South 8.9mph /  14.3km/h 12.0mph /  19.3km/h 10% 0.00in /  0mm 0.0 W/m2
20:50 85.6 °F /  29.8 °C 25.2 °F /  -3.8 °C 29.80in /  1009hPa South 10.1mph /  16.3km/h 13.0mph /  20.9km/h 11% 0.00in /  0mm 0.0 W/m2
20:59 85.3 °F /  29.6 °C 24.8 °F /  -4 °C 29.80in /  1009hPa South 8.9mph /  14.3km/h 12.0mph /  19.3km/h 11% 0.00in /  0mm 0.0 W/m2
21:11 84.9 °F /  29.4 °C 24.6 °F /  -4.1 °C 29.81in /  1009.4hPa South 10.1mph /  16.3km/h 12.0mph /  19.3km/h 11% 0.00in /  0mm 0.0 W/m2
21:31 83.8 °F /  28.8 °C 25.9 °F /  -3.4 °C 29.81in /  1009.4hPa South 8.1mph /  13km/h 12.0mph /  19.3km/h 12% 0.00in /  0mm 0.0 W/m2
22:01 81.9 °F /  27.7 °C 24.3 °F /  -4.3 °C 29.82in /  1009.7hPa South 4.0mph /  6.4km/h 5.0mph /  8km/h 12% 0.00in /  0mm 0.0 W/m2
22:36 82.6 °F /  28.1 °C 18.0 °F /  -7.8 °C 29.84in /  1010.4hPa SSE 8.1mph /  13km/h 9.0mph /  14.5km/h 9% 0.00in /  0mm 0.0 W/m2
22:47 82.0 °F /  27.8 °C 17.6 °F /  -8 °C 29.84in /  1010.4hPa SSE 6.0mph /  9.7km/h 8.0mph /  12.9km/h 9% 0.00in /  0mm 0.0 W/m2
23:02 81.3 °F /  27.4 °C 19.6 °F /  -6.9 °C 29.84in /  1010.4hPa SSE 4.9mph /  7.9km/h 7.0mph /  11.3km/h 10% 0.00in /  0mm 0.0 W/m2
23:17 80.8 °F /  27.1 °C 19.2 °F /  -7.1 °C 29.84in /  1010.4hPa SSE 6.0mph /  9.7km/h 8.0mph /  12.9km/h 10% 0.00in /  0mm 0.0 W/m2
23:31 80.2 °F /  26.8 °C 18.7 °F /  -7.4 °C 29.85in /  1010.7hPa SSE 6.9mph /  11.1km/h 9.0mph /  14.5km/h 10% 0.00in /  0mm 0.0 W/m2
23:37 79.9 °F /  26.6 °C 20.7 °F /  -6.3 °C 29.84in /  1010.4hPa SSE 6.0mph /  9.7km/h 9.0mph /  14.5km/h 11% 0.00in /  0mm 0.0 W/m2
23:52 79.7 °F /  26.5 °C 20.5 °F /  -6.4 °C 29.84in /  1010.4hPa SSE 12.1mph /  19.5km/h 12.1mph /  19.5km/h 11% 0.00in /  0mm 0.0 W/m2
Canyon Roadhouse, Fishriver Canyon, Namibia
Compliments of Weather Underground - 2.25 mb